sensor_id;sensor_type;location;lat;lon;timestamp;P1;durP1;ratioP1;P2;durP2;ratioP2
49488;SDS011;35382;51.484;11.476;2023-04-23T00:00:12;6.78;;;4.80;;
49488;SDS011;35382;51.484;11.476;2023-04-23T00:01:54;7.45;;;4.95;;
49488;SDS011;35382;51.484;11.476;2023-04-23T00:03:37;7.85;;;4.82;;
49488;SDS011;35382;51.484;11.476;2023-04-23T00:05:22;5.82;;;4.60;;
49488;SDS011;35382;51.484;11.476;2023-04-23T00:07:07;7.22;;;4.40;;
49488;SDS011;35382;51.484;11.476;2023-04-23T00:08:48;7.28;;;5.00;;
49488;SDS011;35382;51.484;11.476;2023-04-23T00:10:32;7.95;;;5.35;;
49488;SDS011;35382;51.484;11.476;2023-04-23T00:12:13;6.72;;;4.75;;
49488;SDS011;35382;51.484;11.476;2023-04-23T00:13:55;6.70;;;4.53;;
49488;SDS011;35382;51.484;11.476;2023-04-23T00:15:36;7.90;;;4.63;;
49488;SDS011;35382;51.484;11.476;2023-04-23T00:17:17;8.45;;;4.70;;
49488;SDS011;35382;51.484;11.476;2023-04-23T00:18:59;7.38;;;4.28;;
49488;SDS011;35382;51.484;11.476;2023-04-23T00:20:40;8.00;;;4.15;;
49488;SDS011;35382;51.484;11.476;2023-04-23T00:22:21;6.30;;;4.65;;
49488;SDS011;35382;51.484;11.476;2023-04-23T00:24:02;8.05;;;4.57;;
49488;SDS011;35382;51.484;11.476;2023-04-23T00:25:43;6.38;;;4.63;;
49488;SDS011;35382;51.484;11.476;2023-04-23T00:27:24;6.40;;;4.40;;
49488;SDS011;35382;51.484;11.476;2023-04-23T00:29:05;7.65;;;4.70;;
49488;SDS011;35382;51.484;11.476;2023-04-23T00:30:46;7.07;;;4.57;;
49488;SDS011;35382;51.484;11.476;2023-04-23T00:32:27;8.07;;;4.88;;
49488;SDS011;35382;51.484;11.476;2023-04-23T00:34:08;8.30;;;5.18;;
49488;SDS011;35382;51.484;11.476;2023-04-23T00:35:49;8.23;;;4.75;;
49488;SDS011;35382;51.484;11.476;2023-04-23T00:37:30;7.75;;;5.28;;
49488;SDS011;35382;51.484;11.476;2023-04-23T00:39:12;7.72;;;4.97;;
49488;SDS011;35382;51.484;11.476;2023-04-23T00:40:52;8.00;;;4.63;;
49488;SDS011;35382;51.484;11.476;2023-04-23T00:42:34;7.88;;;5.32;;
49488;SDS011;35382;51.484;11.476;2023-04-23T00:44:16;8.02;;;5.10;;
49488;SDS011;35382;51.484;11.476;2023-04-23T00:45:57;7.43;;;4.93;;
49488;SDS011;35382;51.484;11.476;2023-04-23T00:47:39;6.72;;;5.20;;
49488;SDS011;35382;51.484;11.476;2023-04-23T00:49:20;8.07;;;5.28;;
49488;SDS011;35382;51.484;11.476;2023-04-23T00:51:02;7.00;;;5.60;;
49488;SDS011;35382;51.484;11.476;2023-04-23T00:52:45;7.72;;;4.97;;
49488;SDS011;35382;51.484;11.476;2023-04-23T00:54:26;7.68;;;5.03;;
49488;SDS011;35382;51.484;11.476;2023-04-23T00:56:07;6.82;;;4.68;;
49488;SDS011;35382;51.484;11.476;2023-04-23T00:57:49;8.30;;;4.70;;
49488;SDS011;35382;51.484;11.476;2023-04-23T00:59:30;8.80;;;5.15;;
49488;SDS011;35382;51.484;11.476;2023-04-23T01:01:12;6.30;;;4.78;;
49488;SDS011;35382;51.484;11.476;2023-04-23T01:02:53;8.60;;;5.30;;
49488;SDS011;35382;51.484;11.476;2023-04-23T01:04:34;8.30;;;4.82;;
49488;SDS011;35382;51.484;11.476;2023-04-23T01:06:17;7.55;;;4.53;;
49488;SDS011;35382;51.484;11.476;2023-04-23T01:07:58;9.07;;;5.22;;
49488;SDS011;35382;51.484;11.476;2023-04-23T01:09:40;7.43;;;4.70;;
49488;SDS011;35382;51.484;11.476;2023-04-23T01:11:21;7.68;;;4.60;;
49488;SDS011;35382;51.484;11.476;2023-04-23T01:13:02;7.97;;;4.78;;
49488;SDS011;35382;51.484;11.476;2023-04-23T01:14:44;7.13;;;4.25;;
49488;SDS011;35382;51.484;11.476;2023-04-23T01:16:25;6.38;;;4.47;;
49488;SDS011;35382;51.484;11.476;2023-04-23T01:18:06;6.82;;;4.40;;
49488;SDS011;35382;51.484;11.476;2023-04-23T01:19:47;6.78;;;4.50;;
49488;SDS011;35382;51.484;11.476;2023-04-23T01:21:28;7.78;;;4.93;;
49488;SDS011;35382;51.484;11.476;2023-04-23T01:23:09;6.30;;;3.95;;
49488;SDS011;35382;51.484;11.476;2023-04-23T01:24:50;5.63;;;4.28;;
49488;SDS011;35382;51.484;11.476;2023-04-23T01:26:32;7.03;;;4.35;;
49488;SDS011;35382;51.484;11.476;2023-04-23T01:28:14;6.78;;;4.15;;
49488;SDS011;35382;51.484;11.476;2023-04-23T01:29:55;8.05;;;4.20;;
49488;SDS011;35382;51.484;11.476;2023-04-23T01:31:36;8.02;;;4.25;;
49488;SDS011;35382;51.484;11.476;2023-04-23T01:33:17;6.28;;;4.30;;
49488;SDS011;35382;51.484;11.476;2023-04-23T01:34:59;6.63;;;4.80;;
49488;SDS011;35382;51.484;11.476;2023-04-23T01:36:40;7.60;;;4.68;;
49488;SDS011;35382;51.484;11.476;2023-04-23T01:38:21;6.88;;;4.85;;
49488;SDS011;35382;51.484;11.476;2023-04-23T01:40:02;9.98;;;5.00;;
49488;SDS011;35382;51.484;11.476;2023-04-23T01:41:43;7.97;;;5.18;;
49488;SDS011;35382;51.484;11.476;2023-04-23T01:43:25;8.70;;;5.18;;
49488;SDS011;35382;51.484;11.476;2023-04-23T01:45:06;7.38;;;5.07;;
49488;SDS011;35382;51.484;11.476;2023-04-23T01:46:48;7.32;;;5.20;;
49488;SDS011;35382;51.484;11.476;2023-04-23T01:48:29;9.13;;;5.25;;
49488;SDS011;35382;51.484;11.476;2023-04-23T01:50:10;10.23;;;5.53;;
49488;SDS011;35382;51.484;11.476;2023-04-23T01:51:51;7.35;;;4.95;;
49488;SDS011;35382;51.484;11.476;2023-04-23T01:53:32;7.80;;;5.45;;
49488;SDS011;35382;51.484;11.476;2023-04-23T01:55:13;7.05;;;4.85;;
49488;SDS011;35382;51.484;11.476;2023-04-23T01:56:54;8.60;;;5.30;;
49488;SDS011;35382;51.484;11.476;2023-04-23T01:58:35;8.40;;;5.70;;
49488;SDS011;35382;51.484;11.476;2023-04-23T02:00:17;8.07;;;4.72;;
49488;SDS011;35382;51.484;11.476;2023-04-23T02:01:58;9.00;;;4.80;;
49488;SDS011;35382;51.484;11.476;2023-04-23T02:03:39;7.97;;;4.90;;
49488;SDS011;35382;51.484;11.476;2023-04-23T02:05:21;7.45;;;4.80;;
49488;SDS011;35382;51.484;11.476;2023-04-23T02:07:02;7.95;;;4.38;;
49488;SDS011;35382;51.484;11.476;2023-04-23T02:08:43;7.07;;;4.65;;
49488;SDS011;35382;51.484;11.476;2023-04-23T02:10:24;6.28;;;4.35;;
49488;SDS011;35382;51.484;11.476;2023-04-23T02:12:05;6.55;;;4.43;;
49488;SDS011;35382;51.484;11.476;2023-04-23T02:13:46;10.95;;;5.28;;
49488;SDS011;35382;51.484;11.476;2023-04-23T02:15:27;7.53;;;4.65;;
49488;SDS011;35382;51.484;11.476;2023-04-23T02:17:08;8.63;;;4.88;;
49488;SDS011;35382;51.484;11.476;2023-04-23T02:18:49;7.35;;;4.97;;
49488;SDS011;35382;51.484;11.476;2023-04-23T02:20:31;6.47;;;4.28;;
49488;SDS011;35382;51.484;11.476;2023-04-23T02:22:12;6.88;;;4.35;;
49488;SDS011;35382;51.484;11.476;2023-04-23T02:23:53;7.43;;;4.60;;
49488;SDS011;35382;51.484;11.476;2023-04-23T02:25:34;6.95;;;4.38;;
49488;SDS011;35382;51.484;11.476;2023-04-23T02:27:18;7.28;;;4.30;;
49488;SDS011;35382;51.484;11.476;2023-04-23T02:28:59;8.45;;;5.18;;
49488;SDS011;35382;51.484;11.476;2023-04-23T02:30:40;6.93;;;4.72;;
49488;SDS011;35382;51.484;11.476;2023-04-23T02:32:26;6.75;;;4.60;;
49488;SDS011;35382;51.484;11.476;2023-04-23T02:34:08;8.23;;;4.95;;
49488;SDS011;35382;51.484;11.476;2023-04-23T02:35:49;7.57;;;5.20;;
49488;SDS011;35382;51.484;11.476;2023-04-23T02:37:31;7.22;;;5.00;;
49488;SDS011;35382;51.484;11.476;2023-04-23T02:39:12;6.60;;;4.75;;
49488;SDS011;35382;51.484;11.476;2023-04-23T02:40:53;8.15;;;5.22;;
49488;SDS011;35382;51.484;11.476;2023-04-23T02:42:35;6.05;;;4.60;;
49488;SDS011;35382;51.484;11.476;2023-04-23T02:44:16;8.85;;;5.22;;
49488;SDS011;35382;51.484;11.476;2023-04-23T02:45:57;8.25;;;4.95;;
49488;SDS011;35382;51.484;11.476;2023-04-23T02:47:37;7.28;;;4.50;;
49488;SDS011;35382;51.484;11.476;2023-04-23T02:49:18;6.85;;;4.25;;
49488;SDS011;35382;51.484;11.476;2023-04-23T02:50:59;8.13;;;4.70;;
49488;SDS011;35382;51.484;11.476;2023-04-23T02:52:42;6.97;;;4.57;;
49488;SDS011;35382;51.484;11.476;2023-04-23T02:54:23;7.88;;;4.50;;
49488;SDS011;35382;51.484;11.476;2023-04-23T02:56:04;6.25;;;4.15;;
49488;SDS011;35382;51.484;11.476;2023-04-23T02:57:48;8.70;;;4.32;;
49488;SDS011;35382;51.484;11.476;2023-04-23T02:59:29;8.38;;;4.72;;
49488;SDS011;35382;51.484;11.476;2023-04-23T03:01:10;5.53;;;3.88;;
49488;SDS011;35382;51.484;11.476;2023-04-23T03:02:51;7.13;;;4.20;;
49488;SDS011;35382;51.484;11.476;2023-04-23T03:04:32;6.35;;;4.38;;
49488;SDS011;35382;51.484;11.476;2023-04-23T03:06:13;8.57;;;4.35;;
49488;SDS011;35382;51.484;11.476;2023-04-23T03:07:54;7.88;;;4.07;;
49488;SDS011;35382;51.484;11.476;2023-04-23T03:09:35;6.57;;;3.83;;
49488;SDS011;35382;51.484;11.476;2023-04-23T03:11:16;7.15;;;4.82;;
49488;SDS011;35382;51.484;11.476;2023-04-23T03:12:57;8.52;;;4.60;;
49488;SDS011;35382;51.484;11.476;2023-04-23T03:14:38;8.57;;;4.35;;
49488;SDS011;35382;51.484;11.476;2023-04-23T03:16:19;5.85;;;3.97;;
49488;SDS011;35382;51.484;11.476;2023-04-23T03:18:01;7.40;;;4.43;;
49488;SDS011;35382;51.484;11.476;2023-04-23T03:19:44;7.35;;;4.32;;
49488;SDS011;35382;51.484;11.476;2023-04-23T03:21:25;7.43;;;4.43;;
49488;SDS011;35382;51.484;11.476;2023-04-23T03:23:07;6.25;;;4.30;;
49488;SDS011;35382;51.484;11.476;2023-04-23T03:24:48;7.40;;;4.70;;
49488;SDS011;35382;51.484;11.476;2023-04-23T03:26:29;6.50;;;4.47;;
49488;SDS011;35382;51.484;11.476;2023-04-23T03:28:10;7.57;;;4.45;;
49488;SDS011;35382;51.484;11.476;2023-04-23T03:29:51;7.20;;;4.90;;
49488;SDS011;35382;51.484;11.476;2023-04-23T03:31:32;8.43;;;5.30;;
49488;SDS011;35382;51.484;11.476;2023-04-23T03:33:13;8.23;;;4.95;;
49488;SDS011;35382;51.484;11.476;2023-04-23T03:34:55;7.45;;;4.80;;
49488;SDS011;35382;51.484;11.476;2023-04-23T03:36:36;8.93;;;4.97;;
49488;SDS011;35382;51.484;11.476;2023-04-23T03:38:18;7.53;;;4.93;;
49488;SDS011;35382;51.484;11.476;2023-04-23T03:39:59;8.73;;;5.57;;
49488;SDS011;35382;51.484;11.476;2023-04-23T03:41:46;6.97;;;4.93;;
49488;SDS011;35382;51.484;11.476;2023-04-23T03:43:29;7.82;;;5.13;;
49488;SDS011;35382;51.484;11.476;2023-04-23T03:45:16;9.73;;;5.72;;
49488;SDS011;35382;51.484;11.476;2023-04-23T03:46:58;9.13;;;5.55;;
49488;SDS011;35382;51.484;11.476;2023-04-23T03:48:39;9.60;;;5.68;;
49488;SDS011;35382;51.484;11.476;2023-04-23T03:50:25;7.40;;;4.93;;
49488;SDS011;35382;51.484;11.476;2023-04-23T03:52:19;6.85;;;5.13;;
49488;SDS011;35382;51.484;11.476;2023-04-23T03:54:00;7.90;;;5.30;;
49488;SDS011;35382;51.484;11.476;2023-04-23T03:55:50;10.57;;;5.43;;
49488;SDS011;35382;51.484;11.476;2023-04-23T03:57:31;8.48;;;4.97;;
49488;SDS011;35382;51.484;11.476;2023-04-23T03:59:23;7.57;;;5.47;;
49488;SDS011;35382;51.484;11.476;2023-04-23T04:01:06;7.28;;;5.03;;
49488;SDS011;35382;51.484;11.476;2023-04-23T04:02:48;8.05;;;5.18;;
49488;SDS011;35382;51.484;11.476;2023-04-23T04:04:29;8.02;;;5.25;;
49488;SDS011;35382;51.484;11.476;2023-04-23T04:06:11;7.43;;;5.45;;
49488;SDS011;35382;51.484;11.476;2023-04-23T04:07:52;9.90;;;5.50;;
49488;SDS011;35382;51.484;11.476;2023-04-23T04:09:33;8.63;;;5.35;;
49488;SDS011;35382;51.484;11.476;2023-04-23T04:11:15;8.35;;;5.57;;
49488;SDS011;35382;51.484;11.476;2023-04-23T04:12:56;8.32;;;5.50;;
49488;SDS011;35382;51.484;11.476;2023-04-23T04:14:37;7.50;;;5.30;;
49488;SDS011;35382;51.484;11.476;2023-04-23T04:16:18;10.80;;;5.70;;
49488;SDS011;35382;51.484;11.476;2023-04-23T04:17:59;7.72;;;5.10;;
49488;SDS011;35382;51.484;11.476;2023-04-23T04:19:41;6.22;;;4.70;;
49488;SDS011;35382;51.484;11.476;2023-04-23T04:21:22;6.55;;;4.20;;
49488;SDS011;35382;51.484;11.476;2023-04-23T04:23:03;7.40;;;4.95;;
49488;SDS011;35382;51.484;11.476;2023-04-23T04:24:44;7.40;;;4.90;;
49488;SDS011;35382;51.484;11.476;2023-04-23T04:26:27;8.75;;;4.95;;
49488;SDS011;35382;51.484;11.476;2023-04-23T04:28:08;7.25;;;5.00;;
49488;SDS011;35382;51.484;11.476;2023-04-23T04:29:51;7.32;;;4.93;;
49488;SDS011;35382;51.484;11.476;2023-04-23T04:31:32;6.65;;;4.90;;
49488;SDS011;35382;51.484;11.476;2023-04-23T04:33:13;6.40;;;4.40;;
49488;SDS011;35382;51.484;11.476;2023-04-23T04:34:54;7.70;;;4.88;;
49488;SDS011;35382;51.484;11.476;2023-04-23T04:36:35;6.57;;;4.93;;
49488;SDS011;35382;51.484;11.476;2023-04-23T04:38:16;8.32;;;4.93;;
49488;SDS011;35382;51.484;11.476;2023-04-23T04:40:00;7.22;;;4.70;;
49488;SDS011;35382;51.484;11.476;2023-04-23T04:41:42;9.75;;;5.25;;
49488;SDS011;35382;51.484;11.476;2023-04-23T04:43:23;7.43;;;4.78;;
49488;SDS011;35382;51.484;11.476;2023-04-23T04:45:04;7.93;;;5.18;;
49488;SDS011;35382;51.484;11.476;2023-04-23T04:46:45;7.18;;;5.40;;
49488;SDS011;35382;51.484;11.476;2023-04-23T04:48:27;7.43;;;5.32;;
49488;SDS011;35382;51.484;11.476;2023-04-23T04:50:08;8.35;;;5.85;;
49488;SDS011;35382;51.484;11.476;2023-04-23T04:51:50;7.63;;;5.90;;
49488;SDS011;35382;51.484;11.476;2023-04-23T04:53:31;8.90;;;5.57;;
49488;SDS011;35382;51.484;11.476;2023-04-23T04:55:12;8.27;;;5.72;;
49488;SDS011;35382;51.484;11.476;2023-04-23T04:56:53;9.75;;;5.72;;
49488;SDS011;35382;51.484;11.476;2023-04-23T04:58:34;8.00;;;5.57;;
49488;SDS011;35382;51.484;11.476;2023-04-23T05:02:04;7.22;;;5.30;;
49488;SDS011;35382;51.484;11.476;2023-04-23T05:03:45;9.25;;;6.10;;
49488;SDS011;35382;51.484;11.476;2023-04-23T05:05:26;7.75;;;5.88;;
49488;SDS011;35382;51.484;11.476;2023-04-23T05:07:07;7.72;;;5.70;;
49488;SDS011;35382;51.484;11.476;2023-04-23T05:08:48;9.10;;;5.57;;
49488;SDS011;35382;51.484;11.476;2023-04-23T05:10:29;8.10;;;6.05;;
49488;SDS011;35382;51.484;11.476;2023-04-23T05:12:10;11.02;;;6.82;;
49488;SDS011;35382;51.484;11.476;2023-04-23T05:13:51;7.78;;;5.40;;
49488;SDS011;35382;51.484;11.476;2023-04-23T05:15:32;8.48;;;5.68;;
49488;SDS011;35382;51.484;11.476;2023-04-23T05:17:13;9.23;;;6.10;;
49488;SDS011;35382;51.484;11.476;2023-04-23T05:18:54;9.55;;;6.40;;
49488;SDS011;35382;51.484;11.476;2023-04-23T05:20:35;10.65;;;6.93;;
49488;SDS011;35382;51.484;11.476;2023-04-23T05:22:17;9.40;;;6.43;;
49488;SDS011;35382;51.484;11.476;2023-04-23T05:23:58;8.57;;;6.88;;
49488;SDS011;35382;51.484;11.476;2023-04-23T05:25:39;8.77;;;6.90;;
49488;SDS011;35382;51.484;11.476;2023-04-23T05:27:20;10.45;;;7.32;;
49488;SDS011;35382;51.484;11.476;2023-04-23T05:29:01;11.68;;;7.93;;
49488;SDS011;35382;51.484;11.476;2023-04-23T05:30:43;10.88;;;7.75;;
49488;SDS011;35382;51.484;11.476;2023-04-23T05:32:24;10.60;;;7.65;;
49488;SDS011;35382;51.484;11.476;2023-04-23T05:34:05;9.50;;;7.00;;
49488;SDS011;35382;51.484;11.476;2023-04-23T05:35:46;9.95;;;7.28;;
49488;SDS011;35382;51.484;11.476;2023-04-23T05:37:27;9.20;;;6.65;;
49488;SDS011;35382;51.484;11.476;2023-04-23T05:39:08;9.50;;;7.53;;
49488;SDS011;35382;51.484;11.476;2023-04-23T05:40:49;10.07;;;7.63;;
49488;SDS011;35382;51.484;11.476;2023-04-23T05:42:30;11.10;;;7.63;;
49488;SDS011;35382;51.484;11.476;2023-04-23T05:44:11;9.65;;;7.18;;
49488;SDS011;35382;51.484;11.476;2023-04-23T05:45:52;10.23;;;7.32;;
49488;SDS011;35382;51.484;11.476;2023-04-23T05:47:33;11.88;;;8.00;;
49488;SDS011;35382;51.484;11.476;2023-04-23T05:49:14;11.35;;;7.57;;
49488;SDS011;35382;51.484;11.476;2023-04-23T05:50:55;11.75;;;8.02;;
49488;SDS011;35382;51.484;11.476;2023-04-23T05:52:36;12.15;;;8.90;;
49488;SDS011;35382;51.484;11.476;2023-04-23T05:54:17;13.95;;;8.65;;
49488;SDS011;35382;51.484;11.476;2023-04-23T05:55:58;14.45;;;8.65;;
49488;SDS011;35382;51.484;11.476;2023-04-23T05:57:39;12.10;;;8.65;;
49488;SDS011;35382;51.484;11.476;2023-04-23T05:59:20;10.55;;;8.27;;
49488;SDS011;35382;51.484;11.476;2023-04-23T06:01:01;12.98;;;9.05;;
49488;SDS011;35382;51.484;11.476;2023-04-23T06:02:42;11.10;;;8.68;;
49488;SDS011;35382;51.484;11.476;2023-04-23T06:04:23;11.25;;;8.57;;
49488;SDS011;35382;51.484;11.476;2023-04-23T06:06:04;10.75;;;8.77;;
49488;SDS011;35382;51.484;11.476;2023-04-23T06:07:46;12.10;;;9.02;;
49488;SDS011;35382;51.484;11.476;2023-04-23T06:09:27;12.32;;;9.25;;
49488;SDS011;35382;51.484;11.476;2023-04-23T06:11:08;12.27;;;9.32;;
49488;SDS011;35382;51.484;11.476;2023-04-23T06:12:49;11.32;;;8.93;;
49488;SDS011;35382;51.484;11.476;2023-04-23T06:14:30;13.65;;;9.85;;
49488;SDS011;35382;51.484;11.476;2023-04-23T06:16:11;13.18;;;9.48;;
49488;SDS011;35382;51.484;11.476;2023-04-23T06:17:52;12.50;;;9.50;;
49488;SDS011;35382;51.484;11.476;2023-04-23T06:19:33;13.75;;;10.25;;
49488;SDS011;35382;51.484;11.476;2023-04-23T06:21:14;14.40;;;9.50;;
49488;SDS011;35382;51.484;11.476;2023-04-23T06:22:55;11.98;;;9.18;;
49488;SDS011;35382;51.484;11.476;2023-04-23T06:24:36;13.75;;;9.80;;
49488;SDS011;35382;51.484;11.476;2023-04-23T06:26:17;12.52;;;9.43;;
49488;SDS011;35382;51.484;11.476;2023-04-23T06:28:02;12.98;;;9.65;;
49488;SDS011;35382;51.484;11.476;2023-04-23T06:29:52;11.20;;;7.78;;
49488;SDS011;35382;51.484;11.476;2023-04-23T06:31:33;8.35;;;6.30;;
49488;SDS011;35382;51.484;11.476;2023-04-23T06:33:15;9.55;;;6.50;;
49488;SDS011;35382;51.484;11.476;2023-04-23T06:34:56;8.13;;;5.78;;
49488;SDS011;35382;51.484;11.476;2023-04-23T06:36:37;7.63;;;5.85;;
49488;SDS011;35382;51.484;11.476;2023-04-23T06:38:18;6.78;;;5.22;;
49488;SDS011;35382;51.484;11.476;2023-04-23T06:40:00;7.00;;;4.53;;
49488;SDS011;35382;51.484;11.476;2023-04-23T06:41:42;8.05;;;5.38;;
49488;SDS011;35382;51.484;11.476;2023-04-23T06:43:42;6.18;;;4.43;;
49488;SDS011;35382;51.484;11.476;2023-04-23T06:45:39;7.68;;;5.35;;
49488;SDS011;35382;51.484;11.476;2023-04-23T06:47:20;8.13;;;5.15;;
49488;SDS011;35382;51.484;11.476;2023-04-23T06:49:04;8.20;;;5.88;;
49488;SDS011;35382;51.484;11.476;2023-04-23T06:50:45;7.40;;;5.20;;
49488;SDS011;35382;51.484;11.476;2023-04-23T06:52:26;8.48;;;5.75;;
49488;SDS011;35382;51.484;11.476;2023-04-23T06:54:07;8.10;;;6.30;;
49488;SDS011;35382;51.484;11.476;2023-04-23T06:55:48;10.43;;;6.43;;
49488;SDS011;35382;51.484;11.476;2023-04-23T06:57:30;8.52;;;6.32;;
49488;SDS011;35382;51.484;11.476;2023-04-23T06:59:11;9.50;;;6.47;;
49488;SDS011;35382;51.484;11.476;2023-04-23T07:00:59;9.63;;;6.75;;
49488;SDS011;35382;51.484;11.476;2023-04-23T07:02:43;9.23;;;6.65;;
49488;SDS011;35382;51.484;11.476;2023-04-23T07:04:24;9.48;;;6.93;;
49488;SDS011;35382;51.484;11.476;2023-04-23T07:06:05;9.02;;;7.28;;
49488;SDS011;35382;51.484;11.476;2023-04-23T07:07:46;9.90;;;6.78;;
49488;SDS011;35382;51.484;11.476;2023-04-23T07:09:27;10.63;;;7.78;;
49488;SDS011;35382;51.484;11.476;2023-04-23T07:11:08;10.75;;;7.38;;
49488;SDS011;35382;51.484;11.476;2023-04-23T07:12:50;10.82;;;8.43;;
49488;SDS011;35382;51.484;11.476;2023-04-23T07:14:31;9.82;;;7.75;;
49488;SDS011;35382;51.484;11.476;2023-04-23T07:16:12;9.50;;;7.18;;
49488;SDS011;35382;51.484;11.476;2023-04-23T07:17:53;11.15;;;8.05;;
49488;SDS011;35382;51.484;11.476;2023-04-23T07:19:34;10.93;;;8.00;;
49488;SDS011;35382;51.484;11.476;2023-04-23T07:21:15;11.20;;;7.60;;
49488;SDS011;35382;51.484;11.476;2023-04-23T07:22:56;11.00;;;7.82;;
49488;SDS011;35382;51.484;11.476;2023-04-23T07:24:38;10.95;;;8.57;;
49488;SDS011;35382;51.484;11.476;2023-04-23T07:26:21;12.55;;;9.15;;
49488;SDS011;35382;51.484;11.476;2023-04-23T07:28:02;12.27;;;9.23;;
49488;SDS011;35382;51.484;11.476;2023-04-23T07:29:43;11.05;;;8.50;;
49488;SDS011;35382;51.484;11.476;2023-04-23T07:31:24;14.18;;;10.93;;
49488;SDS011;35382;51.484;11.476;2023-04-23T07:33:05;15.38;;;11.18;;
49488;SDS011;35382;51.484;11.476;2023-04-23T07:34:46;13.52;;;9.82;;
49488;SDS011;35382;51.484;11.476;2023-04-23T07:36:27;11.32;;;8.82;;
49488;SDS011;35382;51.484;11.476;2023-04-23T07:38:08;12.90;;;9.55;;
49488;SDS011;35382;51.484;11.476;2023-04-23T07:39:50;13.25;;;9.27;;
49488;SDS011;35382;51.484;11.476;2023-04-23T07:41:38;11.88;;;9.10;;
49488;SDS011;35382;51.484;11.476;2023-04-23T07:43:20;15.07;;;10.60;;
49488;SDS011;35382;51.484;11.476;2023-04-23T07:45:01;13.85;;;10.63;;
49488;SDS011;35382;51.484;11.476;2023-04-23T07:46:41;12.60;;;9.63;;
49488;SDS011;35382;51.484;11.476;2023-04-23T07:48:22;12.18;;;9.63;;
49488;SDS011;35382;51.484;11.476;2023-04-23T07:50:03;13.27;;;9.77;;
49488;SDS011;35382;51.484;11.476;2023-04-23T07:51:46;13.25;;;9.88;;
49488;SDS011;35382;51.484;11.476;2023-04-23T07:53:27;11.30;;;8.50;;
49488;SDS011;35382;51.484;11.476;2023-04-23T07:55:08;12.57;;;8.68;;
49488;SDS011;35382;51.484;11.476;2023-04-23T07:56:49;12.23;;;7.95;;
49488;SDS011;35382;51.484;11.476;2023-04-23T07:58:30;10.55;;;7.20;;
49488;SDS011;35382;51.484;11.476;2023-04-23T08:00:12;9.23;;;7.22;;
49488;SDS011;35382;51.484;11.476;2023-04-23T08:01:54;9.68;;;7.50;;
49488;SDS011;35382;51.484;11.476;2023-04-23T08:03:35;11.60;;;8.50;;
49488;SDS011;35382;51.484;11.476;2023-04-23T08:05:16;12.65;;;9.13;;
49488;SDS011;35382;51.484;11.476;2023-04-23T08:06:56;11.00;;;8.90;;
49488;SDS011;35382;51.484;11.476;2023-04-23T08:08:38;10.48;;;8.75;;
49488;SDS011;35382;51.484;11.476;2023-04-23T08:10:19;11.18;;;8.68;;
49488;SDS011;35382;51.484;11.476;2023-04-23T08:12:00;10.75;;;7.95;;
49488;SDS011;35382;51.484;11.476;2023-04-23T08:13:41;10.85;;;8.65;;
49488;SDS011;35382;51.484;11.476;2023-04-23T08:15:22;11.98;;;8.65;;
49488;SDS011;35382;51.484;11.476;2023-04-23T08:17:03;10.80;;;8.13;;
49488;SDS011;35382;51.484;11.476;2023-04-23T08:18:44;10.50;;;8.07;;
49488;SDS011;35382;51.484;11.476;2023-04-23T08:20:25;10.38;;;8.35;;
49488;SDS011;35382;51.484;11.476;2023-04-23T08:22:06;10.90;;;8.45;;
49488;SDS011;35382;51.484;11.476;2023-04-23T08:23:47;11.63;;;8.80;;
49488;SDS011;35382;51.484;11.476;2023-04-23T08:25:28;12.18;;;9.35;;
49488;SDS011;35382;51.484;11.476;2023-04-23T08:27:09;12.63;;;9.30;;
49488;SDS011;35382;51.484;11.476;2023-04-23T08:28:50;11.32;;;8.40;;
49488;SDS011;35382;51.484;11.476;2023-04-23T08:30:34;10.98;;;7.65;;
49488;SDS011;35382;51.484;11.476;2023-04-23T08:32:15;8.48;;;7.00;;
49488;SDS011;35382;51.484;11.476;2023-04-23T08:33:56;10.43;;;7.78;;
49488;SDS011;35382;51.484;11.476;2023-04-23T08:35:37;10.20;;;7.40;;
49488;SDS011;35382;51.484;11.476;2023-04-23T08:37:29;10.77;;;7.93;;
49488;SDS011;35382;51.484;11.476;2023-04-23T08:39:10;10.82;;;8.43;;
49488;SDS011;35382;51.484;11.476;2023-04-23T08:40:52;11.80;;;8.45;;
49488;SDS011;35382;51.484;11.476;2023-04-23T08:42:37;13.27;;;8.65;;
49488;SDS011;35382;51.484;11.476;2023-04-23T08:44:24;11.75;;;9.20;;
49488;SDS011;35382;51.484;11.476;2023-04-23T08:46:05;11.00;;;8.95;;
49488;SDS011;35382;51.484;11.476;2023-04-23T08:47:52;11.65;;;9.13;;
49488;SDS011;35382;51.484;11.476;2023-04-23T08:49:36;13.25;;;11.00;;
49488;SDS011;35382;51.484;11.476;2023-04-23T08:51:21;12.32;;;10.20;;
49488;SDS011;35382;51.484;11.476;2023-04-23T08:53:07;14.18;;;10.93;;
49488;SDS011;35382;51.484;11.476;2023-04-23T08:54:49;13.80;;;10.90;;
49488;SDS011;35382;51.484;11.476;2023-04-23T08:56:33;15.38;;;11.10;;
49488;SDS011;35382;51.484;11.476;2023-04-23T08:58:16;14.85;;;11.65;;
49488;SDS011;35382;51.484;11.476;2023-04-23T08:59:58;13.25;;;10.77;;
49488;SDS011;35382;51.484;11.476;2023-04-23T09:01:41;12.45;;;9.55;;
49488;SDS011;35382;51.484;11.476;2023-04-23T09:03:22;12.43;;;10.07;;
49488;SDS011;35382;51.484;11.476;2023-04-23T09:05:04;14.52;;;11.48;;
49488;SDS011;35382;51.484;11.476;2023-04-23T09:06:46;15.63;;;11.68;;
49488;SDS011;35382;51.484;11.476;2023-04-23T09:08:27;13.85;;;10.40;;
49488;SDS011;35382;51.484;11.476;2023-04-23T09:10:09;11.73;;;9.05;;
49488;SDS011;35382;51.484;11.476;2023-04-23T09:11:52;12.60;;;9.68;;
49488;SDS011;35382;51.484;11.476;2023-04-23T09:13:32;12.63;;;9.70;;
49488;SDS011;35382;51.484;11.476;2023-04-23T09:15:15;11.27;;;8.20;;
49488;SDS011;35382;51.484;11.476;2023-04-23T09:16:57;10.88;;;8.48;;
49488;SDS011;35382;51.484;11.476;2023-04-23T09:18:38;13.38;;;9.40;;
49488;SDS011;35382;51.484;11.476;2023-04-23T09:20:19;11.05;;;8.35;;
49488;SDS011;35382;51.484;11.476;2023-04-23T09:22:00;10.98;;;8.50;;
49488;SDS011;35382;51.484;11.476;2023-04-23T09:23:41;11.10;;;8.40;;
49488;SDS011;35382;51.484;11.476;2023-04-23T09:25:23;9.68;;;7.40;;
49488;SDS011;35382;51.484;11.476;2023-04-23T09:27:04;10.65;;;8.25;;
49488;SDS011;35382;51.484;11.476;2023-04-23T09:28:45;10.38;;;7.93;;
49488;SDS011;35382;51.484;11.476;2023-04-23T09:30:30;11.20;;;8.07;;
49488;SDS011;35382;51.484;11.476;2023-04-23T09:32:11;8.55;;;6.40;;
49488;SDS011;35382;51.484;11.476;2023-04-23T09:33:52;8.68;;;6.65;;
49488;SDS011;35382;51.484;11.476;2023-04-23T09:35:33;8.88;;;7.15;;
49488;SDS011;35382;51.484;11.476;2023-04-23T09:37:16;9.25;;;7.00;;
49488;SDS011;35382;51.484;11.476;2023-04-23T09:38:58;8.00;;;6.18;;
49488;SDS011;35382;51.484;11.476;2023-04-23T09:40:39;9.02;;;6.35;;
49488;SDS011;35382;51.484;11.476;2023-04-23T09:42:20;9.75;;;5.15;;
49488;SDS011;35382;51.484;11.476;2023-04-23T09:44:03;6.00;;;3.92;;
49488;SDS011;35382;51.484;11.476;2023-04-23T09:45:47;6.93;;;4.97;;
49488;SDS011;35382;51.484;11.476;2023-04-23T09:47:30;7.80;;;5.55;;
49488;SDS011;35382;51.484;11.476;2023-04-23T09:49:14;7.80;;;5.80;;
49488;SDS011;35382;51.484;11.476;2023-04-23T09:50:55;5.75;;;4.13;;
49488;SDS011;35382;51.484;11.476;2023-04-23T09:52:39;6.63;;;4.63;;
49488;SDS011;35382;51.484;11.476;2023-04-23T09:54:21;5.45;;;3.35;;
49488;SDS011;35382;51.484;11.476;2023-04-23T09:56:05;6.32;;;3.85;;
49488;SDS011;35382;51.484;11.476;2023-04-23T09:57:46;6.57;;;4.35;;
49488;SDS011;35382;51.484;11.476;2023-04-23T09:59:28;6.28;;;4.65;;
49488;SDS011;35382;51.484;11.476;2023-04-23T10:01:10;5.68;;;4.10;;